Pays
Station

 

Conditions  météo  pour  Caen  -  France    France

  
5 °C
    
 
 

METAR pour Caen :

LFRK 140600Z AUTO 25010KT 9999 -RA SCT030/// BKN049/// BKN070/// ///TCU 05/03 Q1001 TEMPO 26025G38KT 2000 TSRAGS SCT010 BKN015CB

 

Voici le bulletin pour Caen - France.
 
Le bulletin a été fait il y a 8 minutes, à 06:00 UTC .
Le vent soufflait à la vitesse de 5.1 mètres par seconde de Ouest/Sud-ouest (250°).
 
La température était de 5 °C, avec un point de rosée à 3 °C.
La pression atmosphérique était de 1001 hPa.
L'humidité relative était de 86.9%.
 
La visibilité globale était de supérieure à 10 kilomètres.
 
Actuellement léger/legère pluie.

 
 
 

Pays :   A   B   C   D   E   F   G   H   I   J   K   L   M   N   O   P   Q   R   S   T   U   V   W   Y   Z

 

Partenaires :  Info Météo avec Met'info
Météo Marine avec MeteoMarine.net
Infos Site  |  Infos Légales  |  Crédits  |  Confidentialité
Contactez-nous  |  Ajouter aux favoris
© 2013-2017 METAR - Tous droits réservés